Time;durP1;ratioP1;P1;durP2;ratioP2;P2;SDS_P1;SDS_P2;PMS_P1;PMS_P2;Temp;Humidity;BMP_temperature;BMP_pressure;BME280_temperature;BME280_humidity;BME280_pressure;Samples;Min_cycle;Max_cycle;Signal;HPM_P1;HPM_P2
2022/07/20 00:01:14;;;;;;;4.30;3.90;;;27.00;86.40;;;;;;5056155;28;20204;-69
2022/07/20 00:03:41;;;;;;;6.40;4.50;;;26.90;86.60;;;;;;5070349;28;20206;-69
2022/07/20 00:06:11;;;;;;;10.60;4.60;;;26.90;86.60;;;;;;5069484;28;20521;-67
2022/07/20 00:11:22;;;;;;;6.70;4.40;;;26.90;86.80;;;;;;5065537;28;20239;-67
2022/07/20 00:13:53;;;;;;;6.93;4.60;;;26.80;86.60;;;;;;5050051;28;20255;-67
2022/07/20 00:16:20;;;;;;;4.25;3.83;;;26.80;86.90;;;;;;5059829;28;20199;-67
2022/07/20 00:18:47;;;;;;;5.65;4.63;;;26.80;87.30;;;;;;5069541;28;20736;-67
2022/07/20 00:21:14;;;;;;;5.10;4.70;;;26.80;87.20;;;;;;5066309;28;20199;-67
2022/07/20 00:23:41;;;;;;;6.80;4.32;;;26.70;87.10;;;;;;5057013;28;20214;-67
2022/07/20 00:26:14;;;;;;;5.88;4.38;;;26.70;87.30;;;;;;5055458;28;20985;-67
2022/07/20 00:28:41;;;;;;;6.18;4.38;;;26.70;87.50;;;;;;5049760;28;20837;-67
2022/07/20 00:31:15;;;;;;;7.53;4.15;;;26.70;87.90;;;;;;5067912;28;20223;-67
2022/07/20 00:33:41;;;;;;;5.45;4.28;;;26.70;88.30;;;;;;5069354;28;20425;-67
2022/07/20 00:36:14;;;;;;;5.93;4.10;;;26.70;88.30;;;;;;5069046;28;20215;-68
2022/07/20 00:38:41;;;;;;;5.53;4.60;;;26.60;88.50;;;;;;5069689;28;20232;-67
2022/07/20 00:41:14;;;;;;;4.38;4.07;;;26.50;89.00;;;;;;5064833;28;20207;-68
2022/07/20 00:43:57;;;;;;;4.82;4.40;;;26.50;88.50;;;;;;5069465;28;20207;-67
2022/07/20 00:46:27;;;;;;;5.18;4.25;;;26.50;88.90;;;;;;5069449;28;20196;-68
2022/07/20 00:48:54;;;;;;;6.10;4.30;;;26.40;88.60;;;;;;5069231;28;20234;-67
2022/07/20 00:51:21;;;;;;;4.80;4.38;;;26.40;88.90;;;;;;5061942;28;20235;-68
2022/07/20 00:53:48;;;;;;;4.53;4.20;;;26.30;89.00;;;;;;5057261;28;20211;-68
2022/07/20 00:56:17;;;;;;;9.30;4.68;;;26.30;89.30;;;;;;5069371;28;20693;-68
2022/07/20 00:58:44;;;;;;;5.53;4.32;;;26.30;89.40;;;;;;5068980;28;20218;-68
2022/07/20 01:01:13;;;;;;;6.40;4.00;;;26.20;89.20;;;;;;5063457;28;20693;-68
2022/07/20 01:03:42;;;;;;;6.20;4.40;;;26.20;89.70;;;;;;5051730;28;20192;-68
2022/07/20 01:06:12;;;;;;;6.78;4.88;;;26.10;89.70;;;;;;5068408;28;20207;-68
2022/07/20 01:08:40;;;;;;;5.40;4.85;;;26.10;89.90;;;;;;5069111;28;20203;-68
2022/07/20 01:11:12;;;;;;;5.10;4.70;;;26.00;90.00;;;;;;5068645;28;20227;-67
2022/07/20 01:13:39;;;;;;;5.78;4.50;;;26.00;90.10;;;;;;5066807;28;20295;-67
2022/07/20 01:16:12;;;;;;;5.00;4.60;;;26.00;89.90;;;;;;5057290;28;20202;-66
2022/07/20 01:18:39;;;;;;;8.07;4.28;;;26.00;89.90;;;;;;5068701;28;20208;-67
2022/07/20 01:21:16;;;;;;;5.20;4.80;;;26.00;89.90;;;;;;5067298;28;20208;-67
2022/07/20 01:23:42;;;;;;;7.20;4.97;;;26.00;89.90;;;;;;5061223;28;20263;-66
2022/07/20 01:26:12;;;;;;;5.93;4.97;;;26.10;89.80;;;;;;5048625;28;20576;-67
2022/07/20 01:28:39;;;;;;;4.88;4.45;;;26.00;89.50;;;;;;5048453;28;20211;-66
2022/07/20 01:31:12;;;;;;;5.38;4.65;;;26.00;89.20;;;;;;5063799;28;20235;-66
2022/07/20 01:33:39;;;;;;;5.18;4.75;;;26.00;90.00;;;;;;5066267;28;20239;-67
2022/07/20 01:36:12;;;;;;;7.75;4.60;;;26.00;89.40;;;;;;5059473;28;20822;-66
2022/07/20 01:38:39;;;;;;;6.50;4.88;;;26.10;89.40;;;;;;5048160;28;20224;-66
2022/07/20 01:41:12;;;;;;;7.80;5.53;;;26.00;89.30;;;;;;5048191;28;20218;-66
2022/07/20 01:43:39;;;;;;;10.85;5.00;;;26.00;89.30;;;;;;5056163;28;20207;-66
2022/07/20 01:46:15;;;;;;;6.00;5.35;;;25.90;89.30;;;;;;5067793;28;20203;-65
2022/07/20 01:48:42;;;;;;;8.82;4.60;;;25.90;89.50;;;;;;5068026;28;20203;-66
2022/07/20 01:51:13;;;;;;;6.97;4.97;;;25.80;89.80;;;;;;5049330;28;20230;-65
2022/07/20 01:53:40;;;;;;;4.90;4.40;;;25.80;89.70;;;;;;5054888;28;20578;-66
2022/07/20 01:56:13;;;;;;;5.07;4.57;;;25.80;89.90;;;;;;5068103;28;20576;-66
2022/07/20 01:58:39;;;;;;;6.20;4.93;;;25.80;90.00;;;;;;5067833;28;20207;-66
2022/07/20 02:01:12;;;;;;;6.22;4.80;;;25.80;90.00;;;;;;5064728;28;20207;-66
2022/07/20 02:03:40;;;;;;;6.65;5.00;;;25.80;90.00;;;;;;5047753;28;20219;-66
2022/07/20 02:06:14;;;;;;;7.15;5.30;;;25.80;90.00;;;;;;5047572;28;20694;-66
2022/07/20 02:08:41;;;;;;;6.07;5.03;;;25.80;89.80;;;;;;5047566;28;20239;-66
2022/07/20 02:11:14;;;;;;;5.57;5.07;;;25.80;90.00;;;;;;5063516;28;20216;-66
2022/07/20 02:13:40;;;;;;;6.15;5.15;;;25.70;90.10;;;;;;5067880;28;20211;-66
2022/07/20 02:16:16;;;;;;;8.27;5.00;;;25.60;90.30;;;;;;5067179;28;20685;-67
2022/07/20 02:18:43;;;;;;;5.53;5.03;;;25.60;90.80;;;;;;5067475;28;20953;-67
2022/07/20 02:21:14;;;;;;;5.05;4.55;;;25.50;90.70;;;;;;5050764;28;20216;-66
2022/07/20 02:23:42;;;;;;;5.82;5.28;;;25.40;91.30;;;;;;5054508;28;20207;-66
2022/07/20 02:26:14;;;;;;;7.20;4.90;;;25.40;91.10;;;;;;5067500;28;20210;-68
2022/07/20 02:28:41;;;;;;;5.45;4.90;;;25.30;91.60;;;;;;5056412;28;20203;-67
2022/07/20 02:31:14;;;;;;;5.95;5.35;;;25.20;91.30;;;;;;5064560;28;20247;-66
2022/07/20 02:33:41;;;;;;;5.65;5.15;;;25.20;90.90;;;;;;5064618;28;20288;-66
2022/07/20 02:36:16;;;;;;;5.22;4.75;;;25.20;91.40;;;;;;5064833;28;20207;-66
2022/07/20 02:38:44;;;;;;;6.50;4.85;;;25.20;91.50;;;;;;5064755;28;20226;-66
2022/07/20 02:41:14;;;;;;;5.47;5.07;;;25.10;91.60;;;;;;5061681;28;20211;-66
2022/07/20 02:43:40;;;;;;;6.10;5.50;;;25.20;91.80;;;;;;5053377;28;20199;-67
2022/07/20 02:46:13;;;;;;;5.85;5.40;;;25.00;91.60;;;;;;5065229;28;20298;-66
2022/07/20 02:48:40;;;;;;;7.82;5.50;;;25.10;91.80;;;;;;5065542;28;20223;-66
2022/07/20 02:51:13;;;;;;;5.30;4.90;;;25.00;91.80;;;;;;5046545;28;20931;-66
2022/07/20 02:53:41;;;;;;;5.90;5.40;;;25.10;92.00;;;;;;5057707;28;20237;-66
2022/07/20 02:56:14;;;;;;;5.57;5.18;;;25.20;92.10;;;;;;5050293;28;20669;-65
2022/07/20 02:58:40;;;;;;;5.78;5.00;;;25.20;91.50;;;;;;5065064;28;20689;-66
2022/07/20 03:01:16;;;;;;;6.07;5.30;;;25.30;91.60;;;;;;5063304;28;20203;-67
2022/07/20 03:03:43;;;;;;;6.00;5.55;;;25.40;91.90;;;;;;5045050;28;20203;-67
2022/07/20 03:06:13;;;;;;;5.50;5.00;;;25.40;91.80;;;;;;5052684;28;20211;-67
2022/07/20 03:08:41;;;;;;;6.47;5.25;;;25.40;91.10;;;;;;5053174;28;20224;-67
2022/07/20 03:11:14;;;;;;;5.28;4.88;;;25.40;91.60;;;;;;5046768;28;20209;-67
2022/07/20 03:13:40;;;;;;;7.70;5.22;;;25.40;91.70;;;;;;5047242;28;20209;-67
2022/07/20 03:16:13;;;;;;;6.22;5.63;;;25.40;91.80;;;;;;5055131;28;20207;-67
2022/07/20 03:18:40;;;;;;;6.30;5.53;;;25.40;91.60;;;;;;5066752;28;20208;-67
2022/07/20 03:21:13;;;;;;;10.75;6.22;;;25.40;91.90;;;;;;5066841;28;20199;-67
2022/07/20 03:23:41;;;;;;;5.60;5.20;;;25.40;91.80;;;;;;5067125;28;20207;-67
2022/07/20 03:26:15;;;;;;;6.07;5.57;;;25.40;91.60;;;;;;5066698;28;20222;-67
2022/07/20 03:28:42;;;;;;;6.47;5.30;;;25.40;91.00;;;;;;5067192;28;20238;-67
2022/07/20 03:31:11;;;;;;;5.68;5.18;;;25.50;90.90;;;;;;5066452;28;20655;-67
2022/07/20 03:33:38;;;;;;;8.38;5.00;;;25.50;90.80;;;;;;5066633;28;20326;-67
2022/07/20 03:36:15;;;;;;;8.23;5.80;;;25.50;91.00;;;;;;5066768;28;20207;-67
2022/07/20 03:38:43;;;;;;;6.47;5.30;;;25.40;91.00;;;;;;5066883;28;20227;-67
2022/07/20 03:41:12;;;;;;;6.00;5.45;;;25.40;90.80;;;;;;5066967;28;20207;-67
2022/07/20 03:43:39;;;;;;;6.45;5.85;;;25.40;91.10;;;;;;5068140;28;20211;-67
2022/07/20 03:46:17;;;;;;;6.97;5.80;;;25.40;91.40;;;;;;5070324;28;20776;-67
2022/07/20 03:48:44;;;;;;;6.28;5.68;;;25.30;91.60;;;;;;5070429;28;21036;-67
2022/07/20 03:51:13;;;;;;;6.38;5.38;;;25.40;91.40;;;;;;5070043;28;20219;-67
2022/07/20 03:53:40;;;;;;;6.50;5.90;;;25.40;91.40;;;;;;5063167;28;20208;-67
2022/07/20 03:56:14;;;;;;;7.43;5.85;;;25.40;91.20;;;;;;5050186;28;20208;-67
2022/07/20 03:58:43;;;;;;;5.65;5.20;;;25.40;91.10;;;;;;5050343;28;20678;-67
2022/07/20 04:01:15;;;;;;;6.65;5.07;;;25.40;91.20;;;;;;5049937;28;20209;-67
2022/07/20 04:03:42;;;;;;;7.07;6.00;;;25.50;91.40;;;;;;5050082;28;20210;-67
2022/07/20 04:06:12;;;;;;;5.60;5.10;;;25.50;91.50;;;;;;5049578;28;20212;-67
2022/07/20 04:08:39;;;;;;;6.20;5.63;;;25.50;91.50;;;;;;5049780;28;20359;-67
2022/07/20 04:11:12;;;;;;;6.72;5.90;;;25.50;91.30;;;;;;5049547;28;20208;-67
2022/07/20 04:13:40;;;;;;;7.38;6.00;;;25.50;90.90;;;;;;5049473;28;20663;-67
2022/07/20 04:16:13;;;;;;;6.35;5.75;;;25.40;90.90;;;;;;5057570;28;20580;-67
2022/07/20 04:18:40;;;;;;;9.52;6.28;;;25.40;91.00;;;;;;5069425;28;20209;-67
2022/07/20 04:21:12;;;;;;;6.30;5.70;;;25.40;91.00;;;;;;5069105;28;20575;-67
2022/07/20 04:23:39;;;;;;;6.20;5.72;;;25.50;91.00;;;;;;5069464;28;20766;-67
2022/07/20 04:26:13;;;;;;;7.93;5.68;;;25.40;91.00;;;;;;5050724;28;20208;-67
2022/07/20 04:28:42;;;;;;;6.60;5.80;;;25.40;91.10;;;;;;5049417;28;20564;-66
2022/07/20 04:31:14;;;;;;;6.15;5.55;;;25.40;91.00;;;;;;5068495;28;20208;-67
2022/07/20 04:33:41;;;;;;;7.82;5.90;;;25.40;91.00;;;;;;5068921;28;20243;-66
2022/07/20 04:36:14;;;;;;;7.72;5.55;;;25.40;91.20;;;;;;5069062;28;20229;-67
2022/07/20 04:38:41;;;;;;;7.60;5.93;;;25.40;91.60;;;;;;5068667;28;20709;-67
2022/07/20 04:41:14;;;;;;;6.20;5.60;;;25.40;91.80;;;;;;5068741;28;20654;-67
2022/07/20 04:43:44;;;;;;;7.63;5.95;;;25.40;91.80;;;;;;5069013;28;20211;-67
2022/07/20 04:46:13;;;;;;;6.55;6.05;;;25.40;91.70;;;;;;5068949;28;20365;-67
2022/07/20 04:48:40;;;;;;;8.32;5.70;;;25.40;91.60;;;;;;5068443;28;20605;-67
2022/07/20 04:51:13;;;;;;;6.90;6.20;;;25.40;91.40;;;;;;5068761;28;20211;-67
2022/07/20 04:53:40;;;;;;;6.68;6.07;;;25.40;91.30;;;;;;5068772;28;20231;-67
2022/07/20 04:56:13;;;;;;;6.68;6.05;;;25.40;91.20;;;;;;5068855;28;20215;-67
2022/07/20 04:58:39;;;;;;;5.93;5.53;;;25.40;91.30;;;;;;5068871;28;20231;-67
2022/07/20 05:01:15;;;;;;;7.80;5.90;;;25.40;91.40;;;;;;5068772;28;20207;-67
2022/07/20 05:03:41;;;;;;;8.70;6.05;;;25.40;91.40;;;;;;5068742;28;20207;-67
2022/07/20 05:06:14;;;;;;;6.30;5.75;;;25.50;91.50;;;;;;5066691;28;20222;-67
2022/07/20 05:08:41;;;;;;;7.50;5.78;;;25.40;91.70;;;;;;5066801;28;20716;-67
2022/07/20 05:11:14;;;;;;;9.65;6.28;;;25.50;91.90;;;;;;5068270;28;20607;-67
2022/07/20 05:13:41;;;;;;;11.05;6.05;;;25.50;91.80;;;;;;5068427;28;20685;-67
2022/07/20 05:16:18;;;;;;;13.38;6.15;;;25.50;91.50;;;;;;5068479;28;20214;-67
2022/07/20 05:18:45;;;;;;;12.02;6.07;;;25.50;91.60;;;;;;5068127;28;20290;-67
2022/07/20 05:21:12;;;;;;;8.05;6.43;;;25.50;91.90;;;;;;5058953;28;20212;-67
2022/07/20 05:23:39;;;;;;;7.20;6.30;;;25.50;92.10;;;;;;5055074;28;20207;-67
2022/07/20 05:26:13;;;;;;;6.88;6.10;;;25.50;92.10;;;;;;5068463;28;20226;-67
2022/07/20 05:28:40;;;;;;;6.72;6.13;;;25.50;92.30;;;;;;5068421;28;20191;-68
2022/07/20 05:31:14;;;;;;;7.43;6.15;;;25.40;92.40;;;;;;5068077;28;20203;-67
2022/07/20 05:33:43;;;;;;;9.10;5.90;;;25.50;92.80;;;;;;5067523;28;20300;-67
2022/07/20 05:36:15;;;;;;;7.93;5.70;;;25.40;92.80;;;;;;5067745;28;20211;-67
2022/07/20 05:38:42;;;;;;;6.78;6.18;;;25.40;92.90;;;;;;5068049;28;20383;-67
2022/07/20 05:41:15;;;;;;;8.02;6.63;;;25.30;92.50;;;;;;5067688;28;20206;-67
2022/07/20 05:43:42;;;;;;;8.60;5.88;;;25.30;92.70;;;;;;5068134;28;20218;-67
2022/07/20 05:46:12;;;;;;;6.57;5.90;;;25.30;92.70;;;;;;5067781;28;20233;-67
2022/07/20 05:48:39;;;;;;;6.25;5.68;;;25.40;92.60;;;;;;5067725;28;20662;-67
2022/07/20 05:51:15;;;;;;;6.57;5.95;;;25.40;92.70;;;;;;5067483;28;20219;-67
2022/07/20 05:53:41;;;;;;;6.93;6.15;;;25.50;92.80;;;;;;5060681;28;20227;-67
2022/07/20 05:56:14;;;;;;;7.60;6.60;;;25.50;92.70;;;;;;5047713;28;20685;-67
2022/07/20 05:58:41;;;;;;;6.70;6.03;;;25.60;92.80;;;;;;5047996;28;20212;-67
2022/07/20 06:01:17;;;;;;;11.63;6.32;;;25.60;92.70;;;;;;5047454;28;20214;-67
2022/07/20 06:03:43;;;;;;;8.15;6.15;;;25.60;92.70;;;;;;5047796;28;20211;-68
2022/07/20 06:06:18;;;;;;;11.00;6.07;;;25.70;92.70;;;;;;5046715;28;20207;-67
2022/07/20 06:08:45;;;;;;;10.10;6.30;;;25.70;92.70;;;;;;5047776;28;20211;-67
2022/07/20 06:11:17;;;;;;;6.57;5.95;;;25.70;92.80;;;;;;5047399;28;20211;-67
2022/07/20 06:13:44;;;;;;;8.07;6.22;;;25.80;92.80;;;;;;5055863;28;20223;-67
2022/07/20 06:16:14;;;;;;;6.53;5.82;;;25.70;93.10;;;;;;5067338;28;20215;-67
2022/07/20 06:18:40;;;;;;;9.57;5.68;;;25.70;93.10;;;;;;5048435;28;20216;-68
2022/07/20 06:21:18;;;;;;;8.82;6.32;;;25.80;93.00;;;;;;5047103;28;20214;-67
2022/07/20 06:23:45;;;;;;;6.70;6.03;;;25.80;93.20;;;;;;5055057;28;20211;-67
2022/07/20 06:26:14;;;;;;;6.25;5.68;;;25.80;93.40;;;;;;5067411;28;20207;-67
2022/07/20 06:28:41;;;;;;;9.38;6.28;;;25.80;93.40;;;;;;5067290;28;20231;-67
2022/07/20 06:31:14;;;;;;;10.00;6.38;;;25.80;93.80;;;;;;5086683;28;20215;-67
2022/07/20 06:33:40;;;;;;;7.93;5.95;;;25.80;94.10;;;;;;5086841;28;20261;-67
2022/07/20 06:36:18;;;;;;;6.28;5.68;;;25.90;93.90;;;;;;5087362;28;20218;-67
2022/07/20 06:38:45;;;;;;;8.30;6.30;;;25.90;93.50;;;;;;5087331;28;20277;-67
2022/07/20 06:41:18;;;;;;;7.18;5.63;;;25.90;93.70;;;;;;5086097;28;20198;-67
2022/07/20 06:43:45;;;;;;;8.18;5.78;;;26.00;93.80;;;;;;5066899;28;20210;-67
2022/07/20 06:46:14;;;;;;;6.80;5.47;;;26.00;93.80;;;;;;5067189;28;20212;-67
2022/07/20 06:48:41;;;;;;;8.52;5.85;;;26.00;93.70;;;;;;5066946;28;20208;-67
2022/07/20 06:51:14;;;;;;;6.68;5.72;;;26.10;93.60;;;;;;5067029;28;20211;-67
2022/07/20 06:53:42;;;;;;;6.45;5.50;;;26.10;93.70;;;;;;5066905;28;20231;-67
2022/07/20 06:56:15;;;;;;;6.88;5.50;;;26.10;93.40;;;;;;5066726;28;20705;-67
2022/07/20 06:58:42;;;;;;;6.65;6.03;;;26.10;93.20;;;;;;5066967;28;20203;-67
2022/07/20 07:01:15;;;;;;;5.97;5.30;;;26.10;93.50;;;;;;5066915;28;20214;-67
2022/07/20 07:03:41;;;;;;;8.40;5.20;;;26.10;92.80;;;;;;5067132;28;20226;-67
2022/07/20 07:06:14;;;;;;;6.30;5.30;;;26.20;92.30;;;;;;5066828;28;20215;-66
2022/07/20 07:08:42;;;;;;;10.43;6.10;;;26.30;92.20;;;;;;5066865;28;20203;-66
2022/07/20 07:11:13;;;;;;;10.23;5.38;;;26.30;92.20;;;;;;5066816;28;20241;-66
2022/07/20 07:13:39;;;;;;;7.20;5.78;;;26.30;92.40;;;;;;5058177;28;20232;-66
2022/07/20 07:16:15;;;;;;;10.10;5.80;;;26.30;92.30;;;;;;5054591;28;20681;-66
2022/07/20 07:18:42;;;;;;;7.03;5.22;;;26.30;92.30;;;;;;5068471;28;20653;-67
2022/07/20 07:21:15;;;;;;;7.50;5.28;;;26.30;92.30;;;;;;5070464;28;20214;-67
2022/07/20 07:23:45;;;;;;;10.00;5.72;;;26.40;92.50;;;;;;5070578;28;20218;-66
2022/07/20 07:26:15;;;;;;;6.22;5.63;;;26.40;92.30;;;;;;5070696;28;20204;-66
2022/07/20 07:28:42;;;;;;;27.05;7.65;;;26.50;92.70;;;;;;5070650;28;20200;-66
2022/07/20 07:31:17;;;;;;;9.27;5.75;;;26.50;92.50;;;;;;5070657;28;20202;-66
2022/07/20 07:33:44;;;;;;;8.77;5.38;;;26.50;92.10;;;;;;5070117;28;20334;-66
2022/07/20 07:36:14;;;;;;;6.25;5.65;;;26.60;92.60;;;;;;5070100;28;20203;-67
2022/07/20 07:38:43;;;;;;;6.13;4.70;;;26.60;92.20;;;;;;5070278;28;20230;-66
2022/07/20 07:41:16;;;;;;;7.95;5.60;;;26.70;92.10;;;;;;5070648;28;20226;-66
2022/07/20 07:43:43;;;;;;;6.22;4.78;;;26.60;92.00;;;;;;5070293;28;20256;-66
2022/07/20 07:46:16;;;;;;;6.57;5.07;;;26.70;92.10;;;;;;5070042;28;20211;-66
2022/07/20 07:48:42;;;;;;;6.22;5.13;;;26.70;92.10;;;;;;5070308;28;20195;-66
2022/07/20 07:51:12;;;;;;;5.68;5.13;;;26.70;92.00;;;;;;5070017;28;20241;-66
2022/07/20 07:53:39;;;;;;;8.63;5.00;;;26.80;92.20;;;;;;5063557;28;20243;-66
2022/07/20 07:56:22;;;;;;;9.30;5.45;;;26.80;92.10;;;;;;5050052;28;20681;-66
2022/07/20 07:58:49;;;;;;;6.38;4.68;;;26.80;92.10;;;;;;5050042;28;20197;-66
2022/07/20 08:01:16;;;;;;;7.47;5.00;;;26.90;92.20;;;;;;5050382;28;20204;-66
2022/07/20 08:03:43;;;;;;;5.97;5.18;;;26.90;92.20;;;;;;5050119;28;20204;-66
2022/07/20 08:06:15;;;;;;;9.55;5.07;;;27.00;92.10;;;;;;5057533;28;20227;-67
2022/07/20 08:08:42;;;;;;;7.10;5.03;;;27.00;92.20;;;;;;5069970;28;20204;-66
2022/07/20 08:11:15;;;;;;;5.75;5.07;;;27.00;92.30;;;;;;5051319;28;20208;-67
2022/07/20 08:13:43;;;;;;;5.50;5.00;;;27.10;92.30;;;;;;5050101;28;20242;-67
2022/07/20 08:16:16;;;;;;;9.05;5.45;;;27.20;92.30;;;;;;5058407;28;20728;-66
2022/07/20 08:18:43;;;;;;;4.95;4.55;;;27.20;92.10;;;;;;5069830;28;20203;-66
2022/07/20 08:21:12;;;;;;;5.43;4.93;;;27.30;92.00;;;;;;5061399;28;20245;-66
2022/07/20 08:23:39;;;;;;;4.85;4.40;;;27.40;92.00;;;;;;5056609;28;20208;-66
2022/07/20 08:26:15;;;;;;;9.30;4.53;;;27.30;91.90;;;;;;5069421;28;20575;-67
2022/07/20 08:28:43;;;;;;;8.48;4.70;;;27.40;92.10;;;;;;5069081;28;20202;-66
2022/07/20 08:31:13;;;;;;;9.55;4.45;;;27.50;92.00;;;;;;5069161;28;20688;-67
2022/07/20 08:33:40;;;;;;;7.63;4.85;;;27.50;91.80;;;;;;5082777;28;20246;-66
2022/07/20 08:36:16;;;;;;;5.30;4.68;;;27.60;91.70;;;;;;5089284;28;20213;-66
2022/07/20 08:38:42;;;;;;;9.20;5.28;;;27.60;91.60;;;;;;5088992;28;20223;-67
2022/07/20 08:41:12;;;;;;;8.60;4.47;;;27.70;91.60;;;;;;5089532;28;20210;-66
2022/07/20 08:43:39;;;;;;;5.40;4.20;;;27.70;91.30;;;;;;5089578;28;20237;-67
2022/07/20 08:46:13;;;;;;;5.97;4.30;;;27.80;91.10;;;;;;5089471;28;20203;-66
2022/07/20 08:48:42;;;;;;;5.57;4.22;;;27.80;91.10;;;;;;5089179;28;20209;-67
2022/07/20 08:51:15;;;;;;;5.32;4.47;;;27.80;91.10;;;;;;5088791;28;20203;-67
2022/07/20 08:53:42;;;;;;;8.20;4.05;;;27.80;91.00;;;;;;5089070;28;20230;-66
2022/07/20 08:56:11;;;;;;;5.18;4.65;;;27.80;91.10;;;;;;5088892;28;20752;-66
2022/07/20 08:58:38;;;;;;;5.30;4.00;;;27.80;91.10;;;;;;5088958;28;20215;-66
2022/07/20 09:01:13;;;;;;;5.53;4.15;;;27.80;91.10;;;;;;5089024;28;20574;-66
2022/07/20 09:03:44;;;;;;;6.35;4.18;;;27.90;91.00;;;;;;5088730;28;20202;-66
2022/07/20 09:06:12;;;;;;;4.93;3.95;;;27.90;91.50;;;;;;5080040;28;20612;-66
2022/07/20 09:09:00;;;;;;;6.82;4.13;;;27.90;91.10;;;;;;5068883;28;20577;-67
2022/07/20 09:11:27;;;;;;;4.90;4.20;;;28.00;91.30;;;;;;5068719;28;20192;-67
2022/07/20 09:13:54;;;;;;;4.95;3.80;;;28.00;91.50;;;;;;5068425;28;20227;-67
2022/07/20 09:16:31;;;;;;;5.45;3.92;;;28.10;91.30;;;;;;5078653;28;20218;-67
2022/07/20 09:18:59;;;;;;;5.97;4.15;;;28.10;90.90;;;;;;5068336;28;20199;-67
2022/07/20 09:21:30;;;;;;;7.60;4.20;;;28.20;90.60;;;;;;5068506;28;20209;-67
2022/07/20 09:24:01;;;;;;;9.10;4.10;;;28.20;90.10;;;;;;5077823;28;20299;-67
2022/07/20 09:26:28;;;;;;;5.78;4.10;;;28.40;89.40;;;;;;5088630;28;20206;-66
2022/07/20 09:28:57;;;;;;;5.55;3.85;;;28.50;89.10;;;;;;5088372;28;20772;-67
2022/07/20 09:31:26;;;;;;;7.30;3.90;;;28.60;90.10;;;;;;5088481;28;20211;-67
2022/07/20 09:33:57;;;;;;;4.85;3.67;;;28.60;89.60;;;;;;5087680;28;20238;-66
2022/07/20 09:36:28;;;;;;;3.75;3.45;;;28.60;88.80;;;;;;5088048;28;20190;-67
2022/07/20 09:39:05;;;;;;;7.13;3.80;;;28.70;88.80;;;;;;5087928;28;20219;-66
2022/07/20 09:41:33;;;;;;;4.95;3.42;;;28.70;88.00;;;;;;5087794;28;20568;-67
2022/07/20 09:44:01;;;;;;;5.65;3.35;;;28.70;86.90;;;;;;5087941;28;20206;-67
2022/07/20 09:46:30;;;;;;;3.10;2.78;;;28.80;86.40;;;;;;5088365;28;20202;-66
2022/07/20 09:48:59;;;;;;;3.67;2.95;;;28.80;85.50;;;;;;5087755;28;20695;-66
2022/07/20 09:51:29;;;;;;;5.70;3.25;;;28.90;84.90;;;;;;5087999;28;20218;-67
2022/07/20 09:53:57;;;;;;;6.82;3.22;;;29.00;84.30;;;;;;5087919;28;20253;-67
2022/07/20 09:56:26;;;;;;;3.95;2.83;;;29.00;85.50;;;;;;5088001;28;20203;-67
2022/07/20 09:58:54;;;;;;;6.15;3.70;;;29.00;86.90;;;;;;5087944;28;20292;-67
2022/07/20 10:01:23;;;;;;;3.83;3.10;;;29.10;85.30;;;;;;5088179;28;20225;-66
2022/07/20 10:03:52;;;;;;;4.43;2.90;;;29.20;84.60;;;;;;5067644;28;20207;-66
2022/07/20 10:06:21;;;;;;;6.15;3.38;;;29.30;84.50;;;;;;5067713;28;20218;-67
2022/07/20 10:08:50;;;;;;;5.15;3.53;;;29.30;83.90;;;;;;5067923;28;20210;-67
2022/07/20 10:11:18;;;;;;;3.70;3.38;;;29.30;83.10;;;;;;5067470;28;20681;-67
2022/07/20 10:13:47;;;;;;;5.65;3.50;;;29.40;83.40;;;;;;5076104;28;20237;-67
2022/07/20 10:16:19;;;;;;;3.90;3.58;;;29.40;83.50;;;;;;5087778;28;20206;-67
2022/07/20 10:18:47;;;;;;;3.17;2.97;;;29.50;84.00;;;;;;5087943;28;20205;-67
2022/07/20 10:21:38;;;;;;;7.00;3.45;;;29.50;80.20;;;;;;5087449;28;20202;-67
2022/07/20 10:24:30;;;;;;;5.15;3.17;;;29.70;78.30;;;;;;5087825;28;20214;-67
2022/07/20 10:27:25;;;;;;;3.17;2.88;;;29.80;78.70;;;;;;5063109;28;20211;-67
2022/07/20 10:29:54;;;;;;;6.28;3.42;;;29.90;77.00;;;;;;5087317;28;20577;-67
2022/07/20 10:32:23;;;;;;;5.35;3.60;;;29.90;78.50;;;;;;5087396;28;20316;-67
2022/07/20 10:34:51;;;;;;;7.28;2.97;;;30.00;80.00;;;;;;5087704;28;20228;-67
2022/07/20 10:37:29;;;;;;;5.30;3.50;;;30.10;79.10;;;;;;5087160;28;20594;-67
2022/07/20 10:40:13;;;;;;;4.07;3.03;;;30.10;77.00;;;;;;5087574;28;20194;-67
2022/07/20 10:42:41;;;;;;;5.55;3.55;;;30.20;77.50;;;;;;5087955;28;20590;-67
2022/07/20 10:45:30;;;;;;;8.65;3.97;;;30.30;77.00;;;;;;5087428;28;20237;-67
2022/07/20 10:48:00;;;;;;;3.83;3.28;;;30.40;77.30;;;;;;5087410;28;20206;-67
2022/07/20 10:50:31;;;;;;;4.45;3.58;;;30.40;76.90;;;;;;5087570;28;20206;-67
2022/07/20 10:52:59;;;;;;;6.78;3.50;;;30.50;77.20;;;;;;5089046;28;20202;-67
2022/07/20 10:55:51;;;;;;;4.97;3.63;;;30.60;77.20;;;;;;5088749;28;20241;-67
2022/07/20 10:58:19;;;;;;;5.60;3.50;;;30.60;77.30;;;;;;5091634;28;20206;-67
2022/07/20 11:00:48;;;;;;;5.25;3.22;;;30.60;77.20;;;;;;5091707;28;20217;-67
2022/07/20 11:03:17;;;;;;;3.05;2.78;;;30.60;78.70;;;;;;5091193;28;20209;-67
2022/07/20 11:05:45;;;;;;;4.30;3.33;;;30.60;77.00;;;;;;5091258;28;20211;-67
2022/07/20 11:08:13;;;;;;;5.05;3.47;;;30.70;77.60;;;;;;5091113;28;20202;-67
2022/07/20 11:10:41;;;;;;;4.28;3.60;;;30.80;77.90;;;;;;5091132;28;20202;-67
2022/07/20 11:13:11;;;;;;;4.00;3.60;;;30.90;78.00;;;;;;5091309;28;20234;-67
2022/07/20 11:15:45;;;;;;;5.65;3.58;;;31.10;76.30;;;;;;5091101;28;20233;-67
2022/07/20 11:18:14;;;;;;;4.13;3.60;;;31.20;75.30;;;;;;5090910;28;20652;-67
2022/07/20 11:20:47;;;;;;;5.15;3.55;;;31.30;75.50;;;;;;5091345;28;20210;-67
2022/07/20 11:23:15;;;;;;;3.95;3.47;;;31.40;75.60;;;;;;5090906;28;20203;-67
2022/07/20 11:25:46;;;;;;;7.18;3.60;;;31.50;75.80;;;;;;5091040;28;20210;-67
2022/07/20 11:28:16;;;;;;;7.68;3.80;;;31.60;75.50;;;;;;5090862;28;20587;-67
2022/07/20 11:30:43;;;;;;;6.15;3.72;;;31.70;77.70;;;;;;5107155;28;20198;-67
2022/07/20 11:33:10;;;;;;;3.92;3.60;;;31.80;77.40;;;;;;5110868;28;20234;-67
2022/07/20 11:35:38;;;;;;;5.05;3.67;;;31.80;74.90;;;;;;5111205;28;20230;-67
2022/07/20 11:38:04;;;;;;;3.60;3.28;;;31.90;75.60;;;;;;5110852;28;20309;-67
2022/07/20 11:40:31;;;;;;;5.15;3.50;;;31.90;75.60;;;;;;5111068;28;20209;-67
2022/07/20 11:43:06;;;;;;;6.07;3.65;;;32.00;74.00;;;;;;5111245;28;20213;-67
2022/07/20 11:45:35;;;;;;;7.32;3.55;;;32.00;72.70;;;;;;5110760;28;20209;-68
2022/07/20 11:48:03;;;;;;;4.68;3.38;;;32.10;73.20;;;;;;5110814;28;20202;-67
2022/07/20 11:50:34;;;;;;;5.07;3.35;;;32.10;72.70;;;;;;5108261;28;20425;-67
2022/07/20 11:53:01;;;;;;;5.85;3.63;;;32.10;73.50;;;;;;5076660;28;20219;-67
2022/07/20 11:55:34;;;;;;;7.15;3.58;;;32.20;72.60;;;;;;5077314;28;20241;-67
2022/07/20 11:58:01;;;;;;;17.67;4.40;;;32.20;73.10;;;;;;5070038;28;20192;-67
2022/07/20 12:00:29;;;;;;;7.35;3.88;;;32.30;73.70;;;;;;5070226;28;20261;-67
2022/07/20 12:02:58;;;;;;;10.57;3.95;;;32.30;73.20;;;;;;5069936;28;20215;-67
2022/07/20 12:05:25;;;;;;;5.18;4.28;;;32.20;73.20;;;;;;5070779;28;20218;-67
2022/07/20 12:08:10;;;;;;;8.05;3.40;;;32.20;71.60;;;;;;5089782;28;20844;-67
2022/07/20 12:10:37;;;;;;;8.82;4.18;;;32.40;70.90;;;;;;5089957;28;20280;-67
2022/07/20 12:13:05;;;;;;;18.20;5.28;;;32.30;71.40;;;;;;5089892;28;20205;-67
2022/07/20 12:15:32;;;;;;;6.65;4.25;;;32.30;72.20;;;;;;5090078;28;20243;-67
2022/07/20 12:18:00;;;;;;;4.95;4.20;;;32.30;71.50;;;;;;5089984;28;20206;-67
2022/07/20 12:20:27;;;;;;;8.88;3.75;;;32.30;72.80;;;;;;5089795;28;20861;-67
2022/07/20 12:22:57;;;;;;;5.95;4.20;;;32.30;74.50;;;;;;5089639;28;20213;-68
2022/07/20 12:25:35;;;;;;;13.02;4.25;;;32.30;73.90;;;;;;5089950;28;20253;-67
2022/07/20 12:28:02;;;;;;;5.47;3.90;;;32.30;74.00;;;;;;5089867;28;20218;-67
2022/07/20 12:30:31;;;;;;;11.68;4.05;;;32.20;73.40;;;;;;5103975;28;20209;-67
2022/07/20 12:33:08;;;;;;;14.07;4.95;;;32.10;73.10;;;;;;5109868;28;20233;-67
2022/07/20 12:35:35;;;;;;;4.30;3.90;;;32.10;72.90;;;;;;5110171;28;20222;-67
2022/07/20 12:38:03;;;;;;;10.75;3.90;;;32.00;72.70;;;;;;5108466;28;20218;-67
2022/07/20 12:40:44;;;;;;;4.95;3.85;;;32.10;73.00;;;;;;5079973;28;20583;-67
2022/07/20 12:43:27;;;;;;;5.32;3.90;;;32.30;73.00;;;;;;5089409;28;20222;-67
2022/07/20 12:45:54;;;;;;;5.50;3.53;;;32.40;73.50;;;;;;5082249;28;20665;-67
2022/07/20 12:48:23;;;;;;;6.20;3.78;;;32.40;72.80;;;;;;5087468;28;20211;-67
2022/07/20 12:50:50;;;;;;;3.95;3.65;;;32.40;72.20;;;;;;5080703;28;20207;-68
2022/07/20 13:49:52;;;;;;;10.70;3.80;;;32.90;68.10;;;;;;5050432;27;20677;-70
2022/07/20 13:52:19;;;;;;;9.55;3.50;;;32.80;66.20;;;;;;5037272;28;20208;-68
2022/07/20 13:54:46;;;;;;;7.88;3.70;;;32.80;66.60;;;;;;5036715;28;20203;-67
2022/07/20 13:57:13;;;;;;;6.75;3.78;;;32.80;67.20;;;;;;5037100;28;20212;-67
2022/07/20 13:59:39;;;;;;;4.63;3.47;;;32.90;65.70;;;;;;5037546;28;20219;-67